Strona główna
METAR-TAF:

METAR-TAF

Lotnisko :

Lotnisko Chopina w Warszawie

Warszawa, Polska

Szerokość geograficzna: 52-10N, Długość geograficzna: 020-58E, wysokość: 106 m

Aktualna obserwacja pogody

Raport powstał 25 minut temu, godzina 07:00 UTC
Wiatr 10 kt od północno-północny wschód
Temperatura 20°C
Wilgotność 60%
Ciśnienie 1021 hPa
Widzialność 10 km lub więcej
Brak chmur poniżej 1500 m i brak chmur cumulonimbus

METAR: EPWA 230700Z 02010KT CAVOK 20/12 Q1021 NOSIG

czas: 09:25 (07:25 UTC)

Prognoza

Raport powstał 1 godzina i 55 minut temu, godzina 05:30 UTC
Prognoza ważna od 23 godzina 06 UTC do 24 godzina 06 UTC
Wiatr 3 kt z kierunków zmiennych
Widzialność 10 km lub więcej
Brak chmur poniżej 1500 m i brak chmur cumulonimbus
Stopniowe zmiany
od 23 godzina 06 UTC do 23 godzina 09 UTC
Wiatr 10 kt od północ

TAF: EPWA 230530Z 2306/2406 VRB03KT CAVOK BECMG 2306/2309 01010KT

Obserwacja i prognoza pogody dla ponad 4000 lotnisk (raport METAR i TAF).

Dostępne stacje oznaczono żółtymi i czerwonymi punktami na mapie.

Najedź kursorem aby zobaczyć nazwę stacji.

Kliknij aby zobaczyć obserwacje i prognozy pogody.

Aby zmienić mapę: kliknij na zielony przycisk z czarnym krzyżykiem, aby powiększyć; na zielony przycisk z myślnikiem, aby pomniejszyć; na zielone strzałki, aby przejść do map sąsiednich.


METAR-TAF: